Detall de PIREP

Printer-friendly versionPDF version

[2012/06/24 13:20:00]
Flight IATA:CT1005
Pilot Number:037
Company ICAO:CAT
Aircraft Type:B752/E
PAX:116
Aircraft Registration:PAX
Departing Airport: LROP
Destination Airport: LFPO
Alternate Airport:EHRD
Online: VATSIM
Route:NILOV UL746 ENIMA UM747 NEKUL UM859 DIMLO UT23 GRZ UT19 ERKIR UL608 KPT UL856 DJL
Flight Level:F350
No Slew and time accel
No pause
Crash detect
Detect pilot in Cockpit between each 30 and 45 minutes
13:20 Zero fuel Weight: 166501 Lbs, Fuel Weight: 36241 Lbs
13:20 VATSIM:LROP 241300Z 09008KT 060V120 CAVOK 24/19 Q1018 8809//95 NOSIG
13:20 VATSIM:LFPO 241300Z 22011KT 190V250 9999 -RA BKN023 17/14 Q1016 TEMPO 4000 RA BKN008
13:32 Parking Brakes off
13:39 Take-off
13:39 Take off Weight: 201504 Lbs
13:39 Wind: 073º @ 007 Knots Heading: 082º
13:39 POS N44º 34´ 45´´ E026º 06´ 53´´
13:39 Gear Up: 185 Knots
13:39 Flaps:2 at 185 Knots
13:39 Flaps:1 at 205 Knots
13:40 Flaps:0 at 219 Knots
13:54 Wind:093º@014 Knots Heading: 304º Ground Speed: 370 Knots Altitude 29438 ft
13:56 TOC
13:56 Fuel Weight: 30853 Lb
14:09 Wind:012º@017 Knots Heading: 299º Ground Speed: 488 Knots Altitude 36099 ft
14:24 Wind:099º@008 Knots Heading: 281º Ground Speed: 499 Knots Altitude 36112 ft
14:39 Wind:179º@028 Knots Heading: 276º Ground Speed: 496 Knots Altitude 36112 ft
14:54 Wind:079º@011 Knots Heading: 284º Ground Speed: 502 Knots Altitude 36089 ft
15:09 Wind:247º@033 Knots Heading: 277º Ground Speed: 463 Knots Altitude 36099 ft
15:24 Wind:269º@031 Knots Heading: 248º Ground Speed: 458 Knots Altitude 36141 ft
15:39 Wind:224º@042 Knots Heading: 259º Ground Speed: 452 Knots Altitude 36161 ft
15:40 TOD
15:40 Fuel Weight: 15322 Lb
15:54 Wind:233º@031 Knots Heading: 309º Ground Speed: 321 Knots Altitude 18103 ft
16:02 Flaps:1 at 212 Knots
16:06 Flaps:2 at 187 Knots
16:07 Flaps:3 at 172 Knots
16:09 Wind:315º@006 Knots Heading: 243º Ground Speed: 164 Knots Altitude 2962 ft
16:09 Gear Down: 158 Knots
16:09 Flaps:4 at 150 Knots
16:10 Flaps:5 at 136 Knots
16:10 Flaps:6 at 135 Knots
16:12 TouchDown:Rate -298 ft/min Speed: 137 Knots
16:12 VATSIM:LFPO 241600Z 34008KT 3500 -RA BKN006 OVC013 14/13 Q1016 TEMPO 4000 RA BKN008
16:12 Land
16:12 Wind:336º@008 Knots
16:12 Heading: 240º
16:12 Flight Duration: 02:33
16:12 Landing Weight: 178528 Lbs
16:12 POS N48º 43´ 38´´ E002º 20´ 16´´
16:17 Parking brakes on
16:17 Block to Block Duration: 02:45
16:17 Final Fuel: 11426 Lbls
16:17 Spent Fuel: 24814 Lbls
16:17 Flight Length: 848 NM
16:17 TOD Land Length: 167 NM

Exportar CSV

Powered by Drupal - Modified by Danger4k